createdAt,value
2023-05-21T00:00:53.902Z,74.98
2023-05-21T00:03:22.120Z,74.94
2023-05-21T00:05:50.347Z,75.14
2023-05-21T00:08:18.304Z,75.06
2023-05-21T00:10:45.965Z,75.10
2023-05-21T00:13:13.772Z,75.13
2023-05-21T00:15:41.719Z,75.30
2023-05-21T00:18:09.336Z,75.18
2023-05-21T00:20:37.324Z,75.07
2023-05-21T00:23:05.370Z,75.16
2023-05-21T00:25:33.127Z,75.33
2023-05-21T00:28:01.130Z,75.23
2023-05-21T00:30:29.046Z,75.18
2023-05-21T00:32:58.926Z,75.36
2023-05-21T00:35:26.655Z,75.25
2023-05-21T00:37:54.510Z,75.00
2023-05-21T00:40:22.512Z,75.23
2023-05-21T00:42:50.261Z,75.25
2023-05-21T00:45:18.115Z,75.22
2023-05-21T00:47:48.636Z,75.28
2023-05-21T00:50:16.432Z,75.47
2023-05-21T00:52:45.874Z,75.45
2023-05-21T00:55:13.943Z,75.39
2023-05-21T00:57:42.914Z,75.23
2023-05-21T01:00:12.138Z,75.40
2023-05-21T01:02:39.886Z,75.17
2023-05-21T01:05:08.244Z,75.42
2023-05-21T01:07:39.119Z,75.51
2023-05-21T01:10:09.871Z,75.13
2023-05-21T01:12:41.866Z,75.30
2023-05-21T01:15:10.940Z,75.36
2023-05-21T01:17:39.252Z,75.30
2023-05-21T01:20:10.741Z,75.16
2023-05-21T01:22:43.717Z,75.05
2023-05-21T01:25:12.326Z,75.01
2023-05-21T01:27:39.945Z,74.76
2023-05-21T01:30:08.587Z,74.96
2023-05-21T01:32:42.372Z,75.09
2023-05-21T01:35:29.618Z,75.43
2023-05-21T01:38:14.708Z,75.44
2023-05-21T01:40:52.367Z,74.66
2023-05-21T01:43:22.774Z,74.22
2023-05-21T01:45:55.035Z,74.68
2023-05-21T01:48:25.571Z,74.43
2023-05-21T01:50:55.577Z,74.61
2023-05-21T01:53:23.892Z,74.62
2023-05-21T01:55:51.636Z,74.83
2023-05-21T01:58:19.757Z,75.19
2023-05-21T02:00:47.775Z,75.13
2023-05-21T02:03:15.481Z,75.28
2023-05-21T02:05:43.539Z,75.10
2023-05-21T02:08:11.388Z,75.36
2023-05-21T02:10:39.022Z,75.31
2023-05-21T02:13:06.746Z,75.48
2023-05-21T02:15:35.152Z,75.43
2023-05-21T02:18:04.021Z,75.33
2023-05-21T02:20:51.498Z,75.19
2023-05-21T02:23:19.092Z,75.16
2023-05-21T02:25:46.636Z,75.73
2023-05-21T02:28:14.388Z,75.60
2023-05-21T02:30:42.088Z,75.51
2023-05-21T02:33:09.827Z,75.43
2023-05-21T02:35:37.849Z,75.11
2023-05-21T02:38:05.585Z,74.92
2023-05-21T02:40:33.260Z,75.03
2023-05-21T02:43:01.097Z,74.96
2023-05-21T02:45:31.516Z,74.72
2023-05-21T02:47:59.774Z,74.77
2023-05-21T02:50:28.018Z,74.69
2023-05-21T02:52:59.911Z,74.53
2023-05-21T02:55:28.659Z,74.57
2023-05-21T02:57:56.658Z,74.39
2023-05-21T03:00:24.271Z,73.96
2023-05-21T03:02:51.865Z,74.11
2023-05-21T03:05:19.596Z,74.36
2023-05-21T03:07:47.163Z,74.39
2023-05-21T03:10:16.089Z,74.30
2023-05-21T03:12:43.670Z,73.96
2023-05-21T03:15:14.958Z,73.76
2023-05-21T03:17:44.667Z,73.30
2023-05-21T03:20:19.105Z,73.47
2023-05-21T03:22:48.350Z,73.03
2023-05-21T03:25:16.098Z,73.07
2023-05-21T03:27:44.666Z,73.18
2023-05-21T03:30:28.372Z,73.20
2023-05-21T03:33:23.053Z,72.87
2023-05-21T03:35:50.985Z,72.53
2023-05-21T03:38:18.631Z,72.50
2023-05-21T03:40:46.765Z,72.40
2023-05-21T03:43:14.411Z,72.47
2023-05-21T03:45:44.338Z,72.54
2023-05-21T03:48:30.666Z,72.47
2023-05-21T03:50:59.605Z,72.17
2023-05-21T03:53:27.217Z,72.14
2023-05-21T03:55:55.577Z,72.25
2023-05-21T03:58:25.147Z,72.72
2023-05-21T04:00:52.806Z,72.41
2023-05-21T04:03:21.371Z,72.22
2023-05-21T04:05:49.708Z,72.30
2023-05-21T04:08:18.103Z,72.25
2023-05-21T04:10:45.818Z,72.37
2023-05-21T04:13:13.408Z,72.51
2023-05-21T04:15:40.942Z,72.37
2023-05-21T04:18:08.853Z,72.19
2023-05-21T04:20:36.706Z,72.67
2023-05-21T04:23:04.836Z,72.58
2023-05-21T04:25:32.397Z,72.84
2023-05-21T04:28:00.594Z,72.75
2023-05-21T04:30:28.238Z,72.37
2023-05-21T04:32:58.198Z,72.14
2023-05-21T04:35:27.304Z,71.59
2023-05-21T04:37:55.110Z,71.10
2023-05-21T04:40:24.765Z,70.97
2023-05-21T04:42:52.322Z,70.07
2023-05-21T04:45:24.752Z,69.94
2023-05-21T04:47:53.918Z,69.79
2023-05-21T04:50:21.559Z,69.90
2023-05-21T04:52:49.394Z,69.71
2023-05-21T04:55:19.190Z,69.64
2023-05-21T04:57:48.315Z,69.27
2023-05-21T05:00:16.684Z,69.01
2023-05-21T05:02:46.523Z,68.81
2023-05-21T05:05:14.309Z,68.76
2023-05-21T05:07:42.714Z,68.62
2023-05-21T05:10:10.683Z,68.59
2023-05-21T05:12:38.289Z,68.50
2023-05-21T05:15:06.727Z,68.67
2023-05-21T05:17:34.552Z,68.27
2023-05-21T05:20:02.314Z,68.07
2023-05-21T05:22:32.550Z,67.88
2023-05-21T05:25:00.304Z,67.75
2023-05-21T05:27:28.072Z,67.64
2023-05-21T05:29:56.369Z,67.63
2023-05-21T05:32:24.207Z,67.56
2023-05-21T05:34:52.094Z,67.50
2023-05-21T05:37:19.753Z,67.34
2023-05-21T05:39:47.392Z,66.87
2023-05-21T05:42:15.123Z,66.85
2023-05-21T05:44:42.787Z,66.76
2023-05-21T05:47:11.121Z,66.48
2023-05-21T05:49:40.737Z,66.03
2023-05-21T05:52:08.504Z,65.82
2023-05-21T05:54:36.094Z,65.70
2023-05-21T05:57:03.916Z,65.70
2023-05-21T05:59:33.874Z,65.58
2023-05-21T06:02:02.396Z,65.41
2023-05-21T06:04:30.361Z,65.32
2023-05-21T06:06:59.995Z,65.04
2023-05-21T06:09:27.608Z,64.86
2023-05-21T06:11:55.240Z,65.23
2023-05-21T06:14:23.501Z,64.42
2023-05-21T06:16:51.356Z,63.87
2023-05-21T06:19:19.966Z,63.24
2023-05-21T06:21:48.287Z,62.81
2023-05-21T06:24:16.054Z,62.57
2023-05-21T06:26:43.625Z,62.28
2023-05-21T06:29:14.264Z,62.21
2023-05-21T06:31:43.971Z,61.98
2023-05-21T06:34:12.033Z,61.64
2023-05-21T06:36:39.732Z,60.91
2023-05-21T06:39:07.345Z,58.98
2023-05-21T06:41:36.054Z,57.52
2023-05-21T06:44:21.122Z,55.35
2023-05-21T06:47:04.484Z,53.82
2023-05-21T06:49:32.833Z,53.48
2023-05-21T06:52:00.530Z,53.13
2023-05-21T06:54:28.090Z,52.69
2023-05-21T06:56:56.267Z,52.71
2023-05-21T06:59:23.893Z,53.05
2023-05-21T07:01:51.462Z,53.57
2023-05-21T07:04:19.089Z,53.93
2023-05-21T07:06:46.919Z,54.64
2023-05-21T07:09:14.667Z,54.95
2023-05-21T07:11:43.525Z,55.23
2023-05-21T07:14:11.792Z,55.30
2023-05-21T07:16:39.771Z,55.22
2023-05-21T07:19:08.385Z,54.75
2023-05-21T07:21:36.195Z,54.29
2023-05-21T07:24:40.548Z,53.18
2023-05-21T07:27:17.736Z,53.58
2023-05-21T07:29:52.935Z,53.22
2023-05-21T07:32:22.306Z,52.67
2023-05-21T07:34:50.831Z,52.04
2023-05-21T07:37:20.824Z,52.13
2023-05-21T07:39:48.485Z,52.88
2023-05-21T07:42:16.362Z,53.40
2023-05-21T07:44:44.348Z,53.47
2023-05-21T07:47:12.030Z,53.87
2023-05-21T07:49:39.850Z,54.21
2023-05-21T07:52:08.427Z,54.35
2023-05-21T07:54:36.209Z,54.42
2023-05-21T07:57:04.152Z,53.32
2023-05-21T07:59:56.978Z,51.14
2023-05-21T08:02:25.172Z,47.84
2023-05-21T08:04:55.247Z,46.01
2023-05-21T08:07:23.161Z,45.54
2023-05-21T08:09:51.794Z,45.78
2023-05-21T08:12:19.881Z,45.59
2023-05-21T08:14:47.734Z,44.89
2023-05-21T08:17:16.964Z,44.32
2023-05-21T08:19:44.928Z,43.37
2023-05-21T08:22:12.854Z,41.09
2023-05-21T08:24:45.237Z,40.06
2023-05-21T08:27:15.313Z,40.49
2023-05-21T08:29:43.771Z,41.47
2023-05-21T08:32:11.809Z,40.84
2023-05-21T08:34:39.467Z,38.70
2023-05-21T08:37:18.892Z,38.02
2023-05-21T08:40:15.169Z,38.68
2023-05-21T08:42:46.991Z,39.62
2023-05-21T08:45:23.754Z,40.67
2023-05-21T08:47:58.727Z,41.53
2023-05-21T08:50:31.775Z,41.81
2023-05-21T08:53:07.486Z,40.41
2023-05-21T08:55:43.932Z,39.63
2023-05-21T08:58:13.784Z,39.10
2023-05-21T09:00:42.825Z,37.85
2023-05-21T09:03:13.996Z,37.56
2023-05-21T09:05:44.866Z,38.64
2023-05-21T09:08:27.778Z,36.95
2023-05-21T09:11:03.530Z,36.81
2023-05-21T09:13:47.560Z,36.64
2023-05-21T09:16:22.944Z,37.17
2023-05-21T09:18:51.264Z,38.37
2023-05-21T09:21:31.951Z,39.12
2023-05-21T09:24:14.365Z,39.78
2023-05-21T09:26:44.077Z,40.67
2023-05-21T09:29:13.577Z,40.45
2023-05-21T09:31:45.417Z,39.49
2023-05-21T09:34:14.739Z,37.96
2023-05-21T09:36:44.214Z,36.81
2023-05-21T09:39:16.678Z,36.73
2023-05-21T09:41:45.434Z,37.38
2023-05-21T09:44:13.664Z,38.15
2023-05-21T09:46:42.253Z,38.90
2023-05-21T09:49:31.348Z,39.24
2023-05-21T09:52:00.932Z,39.98
2023-05-21T09:54:33.990Z,40.41
2023-05-21T09:57:04.913Z,40.30
2023-05-21T09:59:37.115Z,40.58
2023-05-21T10:02:24.093Z,40.63
2023-05-21T10:04:54.486Z,40.76
2023-05-21T10:07:26.248Z,41.11
2023-05-21T10:09:58.186Z,41.26
2023-05-21T10:12:30.520Z,41.69
2023-05-21T10:15:04.098Z,42.27
2023-05-21T10:17:36.636Z,42.07
2023-05-21T10:20:06.110Z,42.26
2023-05-21T10:22:35.095Z,41.80
2023-05-21T10:25:03.979Z,41.58
2023-05-21T10:27:34.571Z,40.80
2023-05-21T10:30:04.068Z,39.03
2023-05-21T10:32:34.157Z,37.02
2023-05-21T10:35:02.913Z,34.65
2023-05-21T10:37:33.400Z,31.68
2023-05-21T10:40:01.565Z,29.28
2023-05-21T10:42:31.682Z,29.08
2023-05-21T10:45:02.233Z,30.01
2023-05-21T10:47:35.029Z,30.30
2023-05-21T10:50:29.968Z,29.81
2023-05-21T10:53:29.100Z,28.76
2023-05-21T10:56:23.122Z,27.13
2023-05-21T10:59:09.161Z,26.00
2023-05-21T11:01:38.694Z,24.82
2023-05-21T11:04:06.837Z,23.88
2023-05-21T11:06:34.618Z,23.32
2023-05-21T11:09:12.384Z,21.92
2023-05-21T11:11:48.738Z,21.94
2023-05-21T11:14:36.810Z,20.60
2023-05-21T11:17:11.601Z,23.00
2023-05-21T11:19:41.536Z,24.86
2023-05-21T11:22:21.723Z,25.92
2023-05-21T11:24:52.785Z,26.60
2023-05-21T11:27:36.450Z,28.93
2023-05-21T11:30:14.671Z,29.68
2023-05-21T11:33:16.504Z,29.81
2023-05-21T11:35:50.191Z,28.33
2023-05-21T11:38:18.283Z,27.34
2023-05-21T11:40:55.683Z,28.07
2023-05-21T11:43:23.665Z,29.05
2023-05-21T11:45:53.383Z,27.70
2023-05-21T11:48:27.300Z,26.28
2023-05-21T11:50:55.745Z,25.75
2023-05-21T11:53:23.439Z,26.76
2023-05-21T11:55:57.448Z,28.22
2023-05-21T11:58:25.860Z,29.95
2023-05-21T12:00:53.504Z,30.81
2023-05-21T12:03:27.005Z,31.48
2023-05-21T12:05:55.343Z,32.20
2023-05-21T12:08:27.246Z,33.76
2023-05-21T12:11:03.900Z,36.14
2023-05-21T12:13:32.263Z,36.01
2023-05-21T12:16:00.089Z,37.35
2023-05-21T12:18:28.108Z,38.59
2023-05-21T12:20:56.005Z,39.02
2023-05-21T12:23:26.574Z,40.34
2023-05-21T12:25:54.429Z,40.62
2023-05-21T12:28:22.871Z,41.37
2023-05-21T12:30:51.187Z,41.83
2023-05-21T12:33:19.118Z,42.26
2023-05-21T12:35:50.348Z,41.85
2023-05-21T12:38:18.446Z,42.21
2023-05-21T12:40:46.120Z,42.21
2023-05-21T12:43:13.955Z,42.64
2023-05-21T12:45:46.830Z,43.13
2023-05-21T12:48:17.626Z,43.05
2023-05-21T12:50:46.378Z,43.21
2023-05-21T12:53:15.526Z,43.38
2023-05-21T12:55:44.097Z,42.91
2023-05-21T12:58:14.306Z,42.78
2023-05-21T13:00:43.493Z,42.15
2023-05-21T13:03:11.450Z,42.05
2023-05-21T13:05:41.786Z,42.25
2023-05-21T13:08:10.793Z,41.97
2023-05-21T13:10:39.264Z,41.46
2023-05-21T13:13:07.093Z,41.42
2023-05-21T13:15:34.760Z,41.29
2023-05-21T13:18:02.951Z,41.22
2023-05-21T13:20:30.686Z,41.34
2023-05-21T13:22:58.574Z,40.99
2023-05-21T13:25:30.199Z,40.88
2023-05-21T13:28:01.758Z,40.52
2023-05-21T13:30:29.827Z,40.51
2023-05-21T13:32:57.496Z,40.42
2023-05-21T13:35:25.412Z,41.11
2023-05-21T13:37:53.124Z,42.75
2023-05-21T13:40:22.472Z,44.19
2023-05-21T13:42:50.578Z,44.83
2023-05-21T13:45:19.643Z,45.94
2023-05-21T13:47:48.415Z,46.40
2023-05-21T13:50:16.816Z,45.72
2023-05-21T13:52:44.731Z,45.91
2023-05-21T13:55:12.821Z,45.86
2023-05-21T13:57:40.839Z,46.00
2023-05-21T14:00:10.691Z,45.92
2023-05-21T14:02:38.553Z,45.51
2023-05-21T14:05:07.545Z,45.84
2023-05-21T14:07:35.160Z,45.68
2023-05-21T14:10:03.101Z,45.46
2023-05-21T14:12:33.566Z,45.47
2023-05-21T14:15:01.678Z,45.50
2023-05-21T14:17:33.658Z,45.70
2023-05-21T14:20:01.352Z,45.72
2023-05-21T14:22:33.021Z,45.57
2023-05-21T14:25:01.113Z,46.19
2023-05-21T14:27:29.090Z,45.88
2023-05-21T14:29:56.767Z,45.96
2023-05-21T14:32:24.569Z,46.33
2023-05-21T14:34:52.559Z,46.01
2023-05-21T14:37:20.456Z,46.16
2023-05-21T14:39:48.460Z,46.28
2023-05-21T14:42:16.227Z,46.50
2023-05-21T14:44:43.993Z,46.20
2023-05-21T14:47:11.734Z,45.85
2023-05-21T14:49:39.440Z,45.47
2023-05-21T14:52:07.335Z,45.61
2023-05-21T14:54:35.104Z,44.87
2023-05-21T14:57:03.024Z,44.48
2023-05-21T14:59:30.751Z,44.15
2023-05-21T15:01:58.710Z,44.20
2023-05-21T15:04:27.063Z,44.36
2023-05-21T15:06:54.950Z,44.60
2023-05-21T15:09:22.598Z,44.70
2023-05-21T15:11:52.751Z,44.73
2023-05-21T15:14:21.103Z,44.72
2023-05-21T15:16:49.114Z,45.00
2023-05-21T15:19:16.932Z,44.91
2023-05-21T15:21:44.855Z,45.06
2023-05-21T15:24:12.620Z,45.59
2023-05-21T15:26:40.394Z,45.75
2023-05-21T15:29:08.080Z,46.00
2023-05-21T15:31:36.121Z,46.16
2023-05-21T15:34:04.152Z,46.38
2023-05-21T15:36:31.995Z,46.27
2023-05-21T15:39:03.671Z,46.31
2023-05-21T15:41:36.460Z,46.76
2023-05-21T15:44:04.764Z,46.52
2023-05-21T15:46:32.424Z,46.36
2023-05-21T15:49:00.230Z,45.95
2023-05-21T15:51:28.126Z,46.14
2023-05-21T15:53:56.093Z,45.82
2023-05-21T15:56:23.776Z,45.82
2023-05-21T15:58:51.558Z,45.57
2023-05-21T16:01:19.263Z,46.04
2023-05-21T16:03:47.217Z,46.17
2023-05-21T16:06:14.900Z,45.97
2023-05-21T16:08:42.942Z,45.92
2023-05-21T16:11:10.688Z,46.28
2023-05-21T16:13:38.832Z,46.36
2023-05-21T16:16:08.789Z,46.28
2023-05-21T16:18:37.833Z,46.22
2023-05-21T16:21:05.974Z,46.33
2023-05-21T16:23:34.346Z,46.09
2023-05-21T16:26:01.989Z,45.97
2023-05-21T16:28:30.375Z,45.98
2023-05-21T16:30:57.989Z,46.28
2023-05-21T16:33:25.931Z,46.29
2023-05-21T16:35:54.532Z,46.32
2023-05-21T16:38:22.911Z,46.60
2023-05-21T16:40:50.636Z,46.53
2023-05-21T16:43:18.272Z,46.38
2023-05-21T16:45:46.894Z,46.54
2023-05-21T16:48:15.245Z,46.95
2023-05-21T16:50:43.277Z,46.81
2023-05-21T16:53:12.184Z,47.04
2023-05-21T16:55:40.427Z,47.35
2023-05-21T16:58:09.459Z,47.45
2023-05-21T17:00:37.775Z,47.41
2023-05-21T17:03:05.790Z,47.80
2023-05-21T17:05:33.665Z,47.99
2023-05-21T17:08:01.402Z,48.28
2023-05-21T17:10:30.156Z,48.24
2023-05-21T17:12:59.880Z,48.56
2023-05-21T17:15:29.656Z,48.52
2023-05-21T17:17:57.592Z,48.92
2023-05-21T17:20:25.913Z,49.03
2023-05-21T17:22:53.675Z,49.06
2023-05-21T17:25:21.578Z,49.25
2023-05-21T17:27:49.405Z,49.34
2023-05-21T17:30:17.260Z,49.76
2023-05-21T17:32:44.933Z,49.61
2023-05-21T17:35:12.704Z,49.96
2023-05-21T17:37:41.049Z,50.17
2023-05-21T17:40:09.661Z,50.46
2023-05-21T17:42:37.433Z,50.42
2023-05-21T17:45:05.738Z,50.48
2023-05-21T17:47:34.692Z,50.36
2023-05-21T17:50:02.647Z,50.35
2023-05-21T17:52:31.781Z,50.77
2023-05-21T17:54:59.517Z,50.52
2023-05-21T17:57:27.465Z,51.05
2023-05-21T17:59:55.621Z,51.11
2023-05-21T18:02:23.659Z,51.21
2023-05-21T18:04:51.243Z,51.12
2023-05-21T18:07:18.890Z,50.99
2023-05-21T18:09:46.472Z,51.25
2023-05-21T18:12:14.147Z,51.23
2023-05-21T18:14:41.742Z,51.25
2023-05-21T18:17:09.595Z,51.33
2023-05-21T18:19:37.366Z,51.14
2023-05-21T18:22:05.350Z,51.37
2023-05-21T18:24:33.220Z,51.54
2023-05-21T18:27:00.943Z,51.44
2023-05-21T18:29:28.588Z,51.71
2023-05-21T18:31:56.598Z,51.29
2023-05-21T18:34:24.531Z,51.38
2023-05-21T18:36:54.616Z,51.26
2023-05-21T18:39:24.921Z,51.15
2023-05-21T18:42:01.662Z,51.46
2023-05-21T18:44:39.702Z,51.66
2023-05-21T18:47:07.861Z,51.50
2023-05-21T18:49:36.455Z,51.56
2023-05-21T18:52:05.233Z,51.95
2023-05-21T18:54:32.959Z,51.78
2023-05-21T18:57:01.217Z,51.75
2023-05-21T18:59:29.179Z,52.03
2023-05-21T19:01:56.836Z,52.11
2023-05-21T19:04:24.570Z,52.04
2023-05-21T19:06:52.291Z,52.64
2023-05-21T19:09:19.852Z,52.61
2023-05-21T19:11:47.563Z,52.95
2023-05-21T19:14:15.257Z,53.42
2023-05-21T19:16:43.194Z,53.47
2023-05-21T19:19:11.264Z,53.62
2023-05-21T19:21:39.317Z,53.88
2023-05-21T19:24:07.302Z,53.97
2023-05-21T19:26:35.151Z,53.93
2023-05-21T19:29:02.784Z,53.56
2023-05-21T19:31:30.662Z,53.71
2023-05-21T19:33:58.315Z,53.59
2023-05-21T19:36:26.876Z,53.69
2023-05-21T19:38:58.900Z,53.72
2023-05-21T19:41:26.590Z,53.93
2023-05-21T19:43:54.194Z,54.11
2023-05-21T19:46:22.103Z,54.23
2023-05-21T19:48:51.055Z,54.64
2023-05-21T19:51:18.979Z,54.71
2023-05-21T19:53:46.641Z,54.95
2023-05-21T19:56:14.506Z,54.87
2023-05-21T19:58:46.956Z,54.95
2023-05-21T20:01:18.989Z,55.58
2023-05-21T20:03:46.761Z,55.17
2023-05-21T20:06:16.295Z,55.25
2023-05-21T20:08:44.096Z,55.80
2023-05-21T20:11:11.745Z,55.60
2023-05-21T20:13:40.816Z,55.77
2023-05-21T20:16:08.513Z,56.04
2023-05-21T20:18:36.262Z,56.12
2023-05-21T20:21:06.379Z,56.19
2023-05-21T20:23:34.287Z,55.90
2023-05-21T20:26:01.970Z,55.85
2023-05-21T20:28:29.727Z,56.25
2023-05-21T20:31:00.867Z,56.64
2023-05-21T20:33:31.457Z,57.07
2023-05-21T20:36:00.213Z,56.99
2023-05-21T20:38:28.060Z,56.74
2023-05-21T20:40:55.821Z,56.61
2023-05-21T20:43:24.630Z,56.88
2023-05-21T20:46:01.389Z,57.29
2023-05-21T20:48:29.920Z,56.94
2023-05-21T20:50:58.549Z,57.07
2023-05-21T20:53:26.866Z,57.13
2023-05-21T20:55:54.894Z,56.95
2023-05-21T20:58:24.119Z,57.73
2023-05-21T21:00:51.955Z,57.56
2023-05-21T21:03:21.826Z,57.43
2023-05-21T21:05:49.834Z,57.51
2023-05-21T21:08:17.656Z,57.42
2023-05-21T21:10:47.104Z,57.67
2023-05-21T21:13:15.547Z,57.65
2023-05-21T21:15:44.116Z,57.92
2023-05-21T21:18:14.648Z,58.01
2023-05-21T21:20:42.902Z,57.94
2023-05-21T21:23:10.720Z,58.03
2023-05-21T21:25:38.534Z,58.25
2023-05-21T21:28:07.324Z,57.97
2023-05-21T21:30:35.124Z,58.23
2023-05-21T21:33:03.011Z,58.39
2023-05-21T21:35:30.858Z,58.83
2023-05-21T21:37:59.086Z,58.85
2023-05-21T21:40:27.522Z,58.78
2023-05-21T21:42:56.802Z,58.73
2023-05-21T21:45:24.496Z,58.76
2023-05-21T21:47:52.119Z,58.70
2023-05-21T21:50:19.796Z,58.67
2023-05-21T21:52:49.032Z,59.05
2023-05-21T21:55:17.580Z,59.01
2023-05-21T21:57:45.292Z,58.65
2023-05-21T22:00:17.238Z,58.35
2023-05-21T22:02:48.556Z,58.40
2023-05-21T22:05:16.348Z,58.86
2023-05-21T22:07:47.292Z,59.04
2023-05-21T22:10:16.401Z,59.17
2023-05-21T22:12:44.988Z,59.34
2023-05-21T22:15:19.360Z,59.96
2023-05-21T22:17:48.736Z,59.54
2023-05-21T22:20:17.850Z,59.70
2023-05-21T22:22:46.919Z,59.66
2023-05-21T22:25:14.729Z,59.87
2023-05-21T22:27:43.341Z,60.18
2023-05-21T22:30:11.671Z,59.83
2023-05-21T22:32:39.691Z,60.11
2023-05-21T22:35:08.549Z,59.99
2023-05-21T22:37:37.507Z,60.32
2023-05-21T22:40:09.369Z,60.27
2023-05-21T22:42:37.408Z,60.53
2023-05-21T22:45:05.965Z,60.22
2023-05-21T22:47:37.281Z,60.44
2023-05-21T22:50:07.340Z,60.81
2023-05-21T22:52:35.320Z,60.52
2023-05-21T22:55:03.589Z,60.66
2023-05-21T22:57:31.466Z,60.81
2023-05-21T22:59:59.229Z,60.95
2023-05-21T23:02:27.006Z,60.83
2023-05-21T23:04:54.705Z,61.16
2023-05-21T23:07:22.444Z,61.32
2023-05-21T23:09:51.916Z,61.26
2023-05-21T23:12:19.922Z,61.43
2023-05-21T23:14:49.698Z,61.88
2023-05-21T23:17:17.477Z,61.66
2023-05-21T23:19:45.148Z,61.97
2023-05-21T23:22:12.865Z,62.33
2023-05-21T23:24:40.609Z,62.51
2023-05-21T23:27:08.398Z,62.66
2023-05-21T23:29:36.263Z,62.56
2023-05-21T23:32:05.253Z,62.63
2023-05-21T23:34:33.177Z,62.50
2023-05-21T23:37:00.974Z,62.75
2023-05-21T23:39:28.951Z,62.74
2023-05-21T23:41:57.028Z,62.92
2023-05-21T23:44:24.929Z,62.75
2023-05-21T23:46:52.637Z,62.86
2023-05-21T23:49:20.440Z,62.67
2023-05-21T23:51:50.826Z,62.79
2023-05-21T23:54:18.784Z,62.79
2023-05-21T23:56:46.819Z,62.86
2023-05-21T23:59:16.284Z,62.82
